sensor_id;sensor_type;location;lat;lon;timestamp;pressure;altitude;pressure_sealevel;temperature;humidity
66664;BME280;59683;51.428;-1.994;2023-01-28T01:08:57;102423.69;;;-2.26;100.00
66664;BME280;59683;51.428;-1.994;2023-01-28T01:11:24;102431.53;;;-2.22;100.00
66664;BME280;59683;51.428;-1.994;2023-01-28T01:13:56;102432.41;;;-2.13;100.00
66664;BME280;59683;51.428;-1.994;2023-01-28T01:16:26;102447.97;;;-2.06;100.00
66664;BME280;59683;51.428;-1.994;2023-01-28T01:18:52;102423.75;;;-2.17;100.00
66664;BME280;59683;51.428;-1.994;2023-01-28T01:29:04;102418.59;;;-1.99;100.00
66664;BME280;59683;51.428;-1.994;2023-01-28T01:31:35;102425.50;;;-1.94;100.00
66664;BME280;59683;51.428;-1.994;2023-01-28T01:36:37;102411.66;;;-1.97;100.00
66664;BME280;59683;51.428;-1.994;2023-01-28T01:39:04;102400.41;;;-1.99;100.00
66664;BME280;59683;51.428;-1.994;2023-01-28T01:41:31;102407.31;;;-1.93;100.00
66664;BME280;59683;51.428;-1.994;2023-01-28T01:44:00;102393.47;;;-1.97;100.00
66664;BME280;59683;51.428;-1.994;2023-01-28T01:49:46;102390.03;;;-1.99;100.00
66664;BME280;59683;51.428;-1.994;2023-01-28T01:52:49;102399.53;;;-1.96;100.00
66664;BME280;59683;51.428;-1.994;2023-01-28T01:59:25;102403.88;;;-1.95;100.00
66664;BME280;59683;51.428;-1.994;2023-01-28T02:02:18;102410.81;;;-1.91;100.00
66664;BME280;59683;51.428;-1.994;2023-01-28T02:04:45;102414.25;;;-1.92;100.00
66664;BME280;59683;51.428;-1.994;2023-01-28T02:07:36;102437.63;;;-1.80;100.00
66664;BME280;59683;51.428;-1.994;2023-01-28T02:42:32;102454.94;;;-1.91;100.00
66664;BME280;59683;51.428;-1.994;2023-01-28T03:07:09;102458.41;;;-1.54;100.00
66664;BME280;59683;51.428;-1.994;2023-01-28T03:29:09;102464.47;;;-1.42;100.00
66664;BME280;59683;51.428;-1.994;2023-01-28T03:34:31;102453.19;;;-1.40;100.00
66664;BME280;59683;51.428;-1.994;2023-01-28T03:40:17;102465.34;;;-1.24;100.00
66664;BME280;59683;51.428;-1.994;2023-01-28T03:42:44;102460.97;;;-1.22;100.00
66664;BME280;59683;51.428;-1.994;2023-01-28T03:45:12;102431.56;;;-1.34;100.00
66664;BME280;59683;51.428;-1.994;2023-01-28T03:57:59;102426.34;;;-1.30;100.00
66664;BME280;59683;51.428;-1.994;2023-01-28T04:00:25;102421.16;;;-1.27;100.00
66664;BME280;59683;51.428;-1.994;2023-01-28T04:02:52;102417.69;;;-1.30;100.00
66664;BME280;59683;51.428;-1.994;2023-01-28T04:20:51;102427.22;;;-1.28;100.00
66664;BME280;59683;51.428;-1.994;2023-01-28T04:25:52;102415.13;;;-1.35;100.00
66664;BME280;59683;51.428;-1.994;2023-01-28T04:44:49;102405.59;;;-1.48;100.00
66664;BME280;59683;51.428;-1.994;2023-01-28T04:58:49;102419.47;;;-1.46;100.00
66664;BME280;59683;51.428;-1.994;2023-01-28T05:01:38;102442.84;;;-1.35;100.00
66664;BME280;59683;51.428;-1.994;2023-01-28T05:11:03;102455.81;;;-1.31;100.00
66664;BME280;59683;51.428;-1.994;2023-01-28T05:24:28;102435.91;;;-1.41;100.00
66664;BME280;59683;51.428;-1.994;2023-01-28T05:27:01;102421.16;;;-1.43;100.00
66664;BME280;59683;51.428;-1.994;2023-01-28T05:29:27;102435.03;;;-1.35;100.00
66664;BME280;59683;51.428;-1.994;2023-01-28T05:31:52;102454.06;;;-1.29;100.00
66664;BME280;59683;51.428;-1.994;2023-01-28T05:34:19;102432.44;;;-1.34;100.00
66664;BME280;59683;51.428;-1.994;2023-01-28T05:36:45;102450.59;;;-1.26;100.00
66664;BME280;59683;51.428;-1.994;2023-01-28T05:39:14;102451.44;;;-1.21;100.00
66664;BME280;59683;51.428;-1.994;2023-01-28T05:41:40;102448.00;;;-1.22;100.00
66664;BME280;59683;51.428;-1.994;2023-01-28T05:44:09;102452.31;;;-1.14;100.00
66664;BME280;59683;51.428;-1.994;2023-01-28T05:46:35;102445.38;;;-1.22;100.00
66664;BME280;59683;51.428;-1.994;2023-01-28T05:49:01;102441.91;;;-1.20;100.00
66664;BME280;59683;51.428;-1.994;2023-01-28T05:51:27;102458.38;;;-1.12;100.00
66664;BME280;59683;51.428;-1.994;2023-01-28T05:53:53;102454.91;;;-1.10;100.00
66664;BME280;59683;51.428;-1.994;2023-01-28T05:56:19;102467.03;;;-1.04;100.00
66664;BME280;59683;51.428;-1.994;2023-01-28T06:01:23;102441.94;;;-1.13;100.00
66664;BME280;59683;51.428;-1.994;2023-01-28T06:03:51;102463.53;;;-1.02;100.00
66664;BME280;59683;51.428;-1.994;2023-01-28T06:06:18;102456.63;;;-1.10;100.00
66664;BME280;59683;51.428;-1.994;2023-01-28T06:19:31;102453.19;;;-1.05;100.00
66664;BME280;59683;51.428;-1.994;2023-01-28T06:22:00;102459.19;;;-0.92;100.00
66664;BME280;59683;51.428;-1.994;2023-01-28T06:24:29;102443.63;;;-1.00;100.00
66664;BME280;59683;51.428;-1.994;2023-01-28T06:26:58;102453.13;;;-0.95;100.00
66664;BME280;59683;51.428;-1.994;2023-01-28T06:29:23;102461.78;;;-0.86;100.00
66664;BME280;59683;51.428;-1.994;2023-01-28T06:31:51;102453.13;;;-0.92;100.00
66664;BME280;59683;51.428;-1.994;2023-01-28T06:34:17;102455.72;;;-0.85;100.00
66664;BME280;59683;51.428;-1.994;2023-01-28T06:36:44;102449.66;;;-0.88;100.00
66664;BME280;59683;51.428;-1.994;2023-01-28T06:39:10;102447.06;;;-0.91;100.00
66664;BME280;59683;51.428;-1.994;2023-01-28T07:03:06;102458.34;;;-0.89;100.00
66664;BME280;59683;51.428;-1.994;2023-01-28T07:05:34;102456.56;;;-0.81;100.00
66664;BME280;59683;51.428;-1.994;2023-01-28T07:08:02;102466.09;;;-0.83;100.00
66664;BME280;59683;51.428;-1.994;2023-01-28T07:10:38;102444.47;;;-0.96;100.00
66664;BME280;59683;51.428;-1.994;2023-01-28T07:13:09;102440.13;;;-0.95;100.00
66664;BME280;59683;51.428;-1.994;2023-01-28T07:15:40;102447.06;;;-0.93;100.00
66664;BME280;59683;51.428;-1.994;2023-01-28T07:18:09;102460.03;;;-0.87;100.00
66664;BME280;59683;51.428;-1.994;2023-01-28T07:20:34;102446.19;;;-0.86;100.00
66664;BME280;59683;51.428;-1.994;2023-01-28T07:23:00;102447.06;;;-0.85;100.00
66664;BME280;59683;51.428;-1.994;2023-01-28T07:25:26;102440.13;;;-0.85;100.00
66664;BME280;59683;51.428;-1.994;2023-01-28T07:27:56;102428.88;;;-0.88;100.00
66664;BME280;59683;51.428;-1.994;2023-01-28T07:30:24;102430.56;;;-0.81;100.00
66664;BME280;59683;51.428;-1.994;2023-01-28T07:33:14;102434.03;;;-0.78;100.00
66664;BME280;59683;51.428;-1.994;2023-01-28T07:36:03;102468.63;;;-0.60;100.00
66664;BME280;59683;51.428;-1.994;2023-01-28T07:38:30;102444.41;;;-0.73;100.00
66664;BME280;59683;51.428;-1.994;2023-01-28T07:40:58;102441.81;;;-0.73;100.00
66664;BME280;59683;51.428;-1.994;2023-01-28T07:43:23;102428.84;;;-0.81;100.00
66664;BME280;59683;51.428;-1.994;2023-01-28T07:45:51;102437.47;;;-0.76;100.00
66664;BME280;59683;51.428;-1.994;2023-01-28T07:48:19;102441.78;;;-0.68;100.00
66664;BME280;59683;51.428;-1.994;2023-01-28T07:50:45;102453.91;;;-0.64;100.00
66664;BME280;59683;51.428;-1.994;2023-01-28T07:53:14;102440.97;;;-0.75;100.00
66664;BME280;59683;51.428;-1.994;2023-01-28T07:55:39;102452.19;;;-0.65;100.00
66664;BME280;59683;51.428;-1.994;2023-01-28T07:58:09;102440.94;;;-0.70;100.00
66664;BME280;59683;51.428;-1.994;2023-01-28T08:00:37;102458.25;;;-0.63;100.00
66664;BME280;59683;51.428;-1.994;2023-01-28T08:03:08;102445.28;;;-0.73;100.00
66664;BME280;59683;51.428;-1.994;2023-01-28T08:05:48;102472.13;;;-0.63;100.00
66664;BME280;59683;51.428;-1.994;2023-01-28T08:08:16;102470.38;;;-0.56;100.00
66664;BME280;59683;51.428;-1.994;2023-01-28T08:10:43;102493.75;;;-0.50;100.00
66664;BME280;59683;51.428;-1.994;2023-01-28T08:13:10;102473.84;;;-0.59;100.00
66664;BME280;59683;51.428;-1.994;2023-01-28T08:15:36;102472.97;;;-0.59;100.00
66664;BME280;59683;51.428;-1.994;2023-01-28T08:18:18;102489.41;;;-0.48;100.00
66664;BME280;59683;51.428;-1.994;2023-01-28T08:20:44;102472.06;;;-0.54;100.00
66664;BME280;59683;51.428;-1.994;2023-01-28T08:23:17;102479.00;;;-0.45;100.00
66664;BME280;59683;51.428;-1.994;2023-01-28T08:25:43;102471.19;;;-0.48;100.00
66664;BME280;59683;51.428;-1.994;2023-01-28T08:28:11;102472.91;;;-0.41;100.00
66664;BME280;59683;51.428;-1.994;2023-01-28T08:30:45;102497.97;;;-0.25;100.00
66664;BME280;59683;51.428;-1.994;2023-01-28T08:33:16;102497.97;;;-0.25;100.00
66664;BME280;59683;51.428;-1.994;2023-01-28T08:35:42;102502.28;;;-0.19;100.00
66664;BME280;59683;51.428;-1.994;2023-01-28T08:38:11;102493.63;;;-0.24;100.00
66664;BME280;59683;51.428;-1.994;2023-01-28T08:40:38;102508.38;;;-0.25;100.00
66664;BME280;59683;51.428;-1.994;2023-01-28T08:43:05;102522.22;;;-0.13;100.00
66664;BME280;59683;51.428;-1.994;2023-01-28T08:45:34;102510.94;;;-0.15;100.00
66664;BME280;59683;51.428;-1.994;2023-01-28T08:48:02;102526.50;;;-0.08;100.00
66664;BME280;59683;51.428;-1.994;2023-01-28T08:50:31;102512.63;;;-0.08;100.00
66664;BME280;59683;51.428;-1.994;2023-01-28T08:52:59;102517.88;;;-0.13;100.00
66664;BME280;59683;51.428;-1.994;2023-01-28T08:55:26;102561.13;;;0.11;100.00
66664;BME280;59683;51.428;-1.994;2023-01-28T08:57:53;102516.13;;;-0.11;100.00
66664;BME280;59683;51.428;-1.994;2023-01-28T09:00:19;102527.34;;;-0.01;100.00
66664;BME280;59683;51.428;-1.994;2023-01-28T09:02:45;102539.44;;;0.11;100.00
66664;BME280;59683;51.428;-1.994;2023-01-28T09:05:11;102536.84;;;0.15;100.00
66664;BME280;59683;51.428;-1.994;2023-01-28T09:07:37;102533.34;;;0.13;100.00
66664;BME280;59683;51.428;-1.994;2023-01-28T09:10:04;102552.34;;;0.32;100.00
66664;BME280;59683;51.428;-1.994;2023-01-28T09:12:31;102523.81;;;0.15;100.00
66664;BME280;59683;51.428;-1.994;2023-01-28T09:14:56;102533.28;;;0.27;100.00
66664;BME280;59683;51.428;-1.994;2023-01-28T09:17:22;102527.22;;;0.25;100.00
66664;BME280;59683;51.428;-1.994;2023-01-28T09:19:48;102514.16;;;0.34;100.00
66664;BME280;59683;51.428;-1.994;2023-01-28T09:22:14;102521.03;;;0.40;100.00
66664;BME280;59683;51.428;-1.994;2023-01-28T09:24:39;102527.94;;;0.44;100.00
66664;BME280;59683;51.428;-1.994;2023-01-28T09:27:05;102525.28;;;0.52;100.00
66664;BME280;59683;51.428;-1.994;2023-01-28T09:29:34;102539.13;;;0.61;100.00
66664;BME280;59683;51.428;-1.994;2023-01-28T09:32:00;102526.09;;;0.61;100.00
66664;BME280;59683;51.428;-1.994;2023-01-28T09:34:26;102524.31;;;0.68;100.00
66664;BME280;59683;51.428;-1.994;2023-01-28T09:36:51;102518.31;;;0.55;100.00
66664;BME280;59683;51.428;-1.994;2023-01-28T09:39:18;102537.28;;;0.76;100.00
66664;BME280;59683;51.428;-1.994;2023-01-28T09:42:08;102517.28;;;0.78;100.00
66664;BME280;59683;51.428;-1.994;2023-01-28T09:45:02;102510.22;;;0.90;100.00
66664;BME280;59683;51.428;-1.994;2023-01-28T09:47:42;102511.88;;;0.99;100.00
66664;BME280;59683;51.428;-1.994;2023-01-28T09:50:30;102487.66;;;0.85;100.00
66664;BME280;59683;51.428;-1.994;2023-01-28T09:53:02;102480.63;;;0.94;100.00
66664;BME280;59683;51.428;-1.994;2023-01-28T09:55:36;102507.34;;;1.18;100.00
66664;BME280;59683;51.428;-1.994;2023-01-28T09:58:11;102505.59;;;1.18;100.00
66664;BME280;59683;51.428;-1.994;2023-01-28T10:00:59;102513.22;;;1.35;100.00
66664;BME280;59683;51.428;-1.994;2023-01-28T10:03:38;102493.19;;;1.39;100.00
66664;BME280;59683;51.428;-1.994;2023-01-28T10:09:53;102485.22;;;1.51;100.00
66664;BME280;59683;51.428;-1.994;2023-01-28T10:12:01;102481.66;;;1.57;100.00
66664;BME280;59683;51.428;-1.994;2023-01-28T10:14:48;102448.56;;;1.60;100.00
66664;BME280;59683;51.428;-1.994;2023-01-28T10:17:42;102444.97;;;1.70;100.00
66664;BME280;59683;51.428;-1.994;2023-01-28T10:22:48;102448.97;;;1.96;100.00
66664;BME280;59683;51.428;-1.994;2023-01-28T10:25:18;102448.78;;;2.08;100.00
66664;BME280;59683;51.428;-1.994;2023-01-28T10:27:46;102453.81;;;2.21;100.00
66664;BME280;59683;51.428;-1.994;2023-01-28T10:30:18;102441.50;;;2.27;100.00
66664;BME280;59683;51.428;-1.994;2023-01-28T10:35:21;102428.16;;;2.44;100.00
66664;BME280;59683;51.428;-1.994;2023-01-28T10:37:48;102436.81;;;2.48;100.00
66664;BME280;59683;51.428;-1.994;2023-01-28T10:40:17;102445.47;;;2.51;100.00
66664;BME280;59683;51.428;-1.994;2023-01-28T10:42:43;102434.00;;;2.60;100.00
66664;BME280;59683;51.428;-1.994;2023-01-28T10:45:14;102443.41;;;2.70;100.00
66664;BME280;59683;51.428;-1.994;2023-01-28T10:47:46;102423.47;;;2.63;100.00
66664;BME280;59683;51.428;-1.994;2023-01-28T10:50:19;102423.28;;;2.74;100.00
66664;BME280;59683;51.428;-1.994;2023-01-28T10:52:58;102423.19;;;2.78;100.00
66664;BME280;59683;51.428;-1.994;2023-01-28T10:55:56;102417.28;;;2.68;100.00
66664;BME280;59683;51.428;-1.994;2023-01-28T10:58:24;102414.03;;;2.56;100.00
66664;BME280;59683;51.428;-1.994;2023-01-28T11:01:13;102408.09;;;2.46;100.00
66664;BME280;59683;51.428;-1.994;2023-01-28T11:03:39;102405.44;;;2.49;100.00
66664;BME280;59683;51.428;-1.994;2023-01-28T11:06:05;102426.31;;;2.51;100.00
66664;BME280;59683;51.428;-1.994;2023-01-28T11:08:42;102411.53;;;2.48;100.00
66664;BME280;59683;51.428;-1.994;2023-01-28T11:11:13;102417.56;;;2.53;100.00
66664;BME280;59683;51.428;-1.994;2023-01-28T11:13:48;102434.69;;;2.70;100.00
66664;BME280;59683;51.428;-1.994;2023-01-28T11:16:18;102436.31;;;2.77;100.00
66664;BME280;59683;51.428;-1.994;2023-01-28T11:18:53;102419.81;;;2.75;100.00
66664;BME280;59683;51.428;-1.994;2023-01-28T11:21:22;102446.63;;;2.84;100.00
66664;BME280;59683;51.428;-1.994;2023-01-28T11:23:52;102439.78;;;2.77;100.00
66664;BME280;59683;51.428;-1.994;2023-01-28T11:26:25;102456.94;;;2.94;100.00
66664;BME280;59683;51.428;-1.994;2023-01-28T11:28:51;102442.91;;;2.98;100.00
66664;BME280;59683;51.428;-1.994;2023-01-28T11:31:18;102428.03;;;3.01;100.00
66664;BME280;59683;51.428;-1.994;2023-01-28T11:34:18;102444.28;;;3.15;100.00
66664;BME280;59683;51.428;-1.994;2023-01-28T11:36:36;102434.69;;;3.17;100.00
66664;BME280;59683;51.428;-1.994;2023-01-28T11:39:15;102451.09;;;3.26;100.00
66664;BME280;59683;51.428;-1.994;2023-01-28T11:41:42;102453.69;;;3.26;100.00
66664;BME280;59683;51.428;-1.994;2023-01-28T11:52:12;102451.00;;;3.30;100.00
66664;BME280;59683;51.428;-1.994;2023-01-28T12:08:42;102441.09;;;3.45;100.00
66664;BME280;59683;51.428;-1.994;2023-01-28T12:22:35;102445.03;;;3.65;100.00
66664;BME280;59683;51.428;-1.994;2023-01-28T12:28:02;102441.25;;;3.79;100.00
66664;BME280;59683;51.428;-1.994;2023-01-28T12:39:21;102420.19;;;3.83;100.00
66664;BME280;59683;51.428;-1.994;2023-01-28T12:42:44;102418.28;;;3.92;100.00
66664;BME280;59683;51.428;-1.994;2023-01-28T12:45:19;102413.81;;;3.95;100.00
66664;BME280;59683;51.428;-1.994;2023-01-28T12:47:52;102393.75;;;3.94;100.00
66664;BME280;59683;51.428;-1.994;2023-01-28T12:50:26;102394.41;;;4.02;100.00
66664;BME280;59683;51.428;-1.994;2023-01-28T12:53:00;102392.69;;;4.03;100.00
66664;BME280;59683;51.428;-1.994;2023-01-28T12:55:41;102403.00;;;4.09;100.00
66664;BME280;59683;51.428;-1.994;2023-01-28T12:58:16;102367.53;;;3.94;100.00
66664;BME280;59683;51.428;-1.994;2023-01-28T17:26:58;102378.97;;;3.12;100.00
66664;BME280;59683;51.428;-1.994;2023-01-28T18:00:28;102372.34;;;2.93;100.00
66664;BME280;59683;51.428;-1.994;2023-01-28T21:40:14;102361.88;;;2.48;100.00
66664;BME280;59683;51.428;-1.994;2023-01-28T21:42:43;102369.66;;;2.51;100.00
66664;BME280;59683;51.428;-1.994;2023-01-28T21:45:13;102378.34;;;2.53;100.00
66664;BME280;59683;51.428;-1.994;2023-01-28T21:47:40;102384.50;;;2.51;100.00
66664;BME280;59683;51.428;-1.994;2023-01-28T21:50:08;102383.69;;;2.47;100.00
66664;BME280;59683;51.428;-1.994;2023-01-28T21:52:36;102400.94;;;2.57;100.00
66664;BME280;59683;51.428;-1.994;2023-01-28T21:55:09;102385.41;;;2.48;100.00
66664;BME280;59683;51.428;-1.994;2023-01-28T21:57:37;102369.78;;;2.45;100.00
66664;BME280;59683;51.428;-1.994;2023-01-28T22:00:07;102376.66;;;2.51;100.00
66664;BME280;59683;51.428;-1.994;2023-01-28T22:02:38;102368.03;;;2.46;100.00
66664;BME280;59683;51.428;-1.994;2023-01-28T22:05:13;102367.16;;;2.47;100.00
66664;BME280;59683;51.428;-1.994;2023-01-28T22:07:42;102355.84;;;2.46;100.00
66664;BME280;59683;51.428;-1.994;2023-01-28T22:10:13;102375.69;;;2.55;100.00
66664;BME280;59683;51.428;-1.994;2023-01-28T22:12:41;102354.13;;;2.45;100.00
66664;BME280;59683;51.428;-1.994;2023-01-28T22:20:23;102354.88;;;2.50;100.00
66664;BME280;59683;51.428;-1.994;2023-01-28T22:22:49;102351.38;;;2.51;100.00
66664;BME280;59683;51.428;-1.994;2023-01-28T22:25:15;102346.16;;;2.51;100.00
66664;BME280;59683;51.428;-1.994;2023-01-28T23:22:04;102313.97;;;2.49;100.00
66664;BME280;59683;51.428;-1.994;2023-01-28T23:24:49;102308.72;;;2.49;100.00
66664;BME280;59683;51.428;-1.994;2023-01-28T23:29:54;102316.59;;;2.48;100.00
66664;BME280;59683;51.428;-1.994;2023-01-28T23:32:26;102322.63;;;2.51;100.00
66664;BME280;59683;51.428;-1.994;2023-01-28T23:42:37;102313.97;;;2.49;100.00
66664;BME280;59683;51.428;-1.994;2023-01-28T23:45:03;102313.00;;;2.53;100.00
66664;BME280;59683;51.428;-1.994;2023-01-28T23:47:30;102300.03;;;2.47;100.00
66664;BME280;59683;51.428;-1.994;2023-01-28T23:49:55;102292.34;;;2.39;100.00
66664;BME280;59683;51.428;-1.994;2023-01-28T23:52:21;102288.84;;;2.42;100.00
66664;BME280;59683;51.428;-1.994;2023-01-28T23:54:47;102305.16;;;2.53;100.00
66664;BME280;59683;51.428;-1.994;2023-01-28T23:57:13;102300.75;;;2.57;100.00
66664;BME280;59683;51.428;-1.994;2023-01-28T23:59:38;102293.06;;;2.49;100.00
